createdAt,value
2019-05-13T00:02:04.547Z,59.30
2019-05-13T00:04:33.716Z,59.40
2019-05-13T00:07:04.823Z,59.50
2019-05-13T00:09:34.219Z,59.50
2019-05-13T00:12:04.688Z,59.60
2019-05-13T00:14:34.541Z,59.60
2019-05-13T00:17:04.309Z,59.80
2019-05-13T00:19:33.919Z,59.80
2019-05-13T00:22:03.873Z,59.80
2019-05-13T00:24:34.046Z,59.90
2019-05-13T00:27:04.082Z,59.90
2019-05-13T00:29:34.122Z,60.00
2019-05-13T00:32:04.723Z,60.00
2019-05-13T00:34:34.253Z,60.10
2019-05-13T00:37:11.172Z,60.10
2019-05-13T00:39:34.154Z,60.10
2019-05-13T00:42:03.963Z,60.10
2019-05-13T00:44:34.081Z,60.00
2019-05-13T00:47:04.439Z,60.10
2019-05-13T00:49:34.536Z,60.00
2019-05-13T00:52:04.013Z,60.10
2019-05-13T00:54:34.238Z,60.10
2019-05-13T00:57:04.192Z,60.20
2019-05-13T00:59:34.110Z,60.30
2019-05-13T01:02:03.871Z,60.20
2019-05-13T01:04:33.858Z,60.20
2019-05-13T01:07:04.460Z,60.30
2019-05-13T01:09:34.256Z,60.40
2019-05-13T01:12:04.461Z,60.40
2019-05-13T01:14:34.423Z,60.30
2019-05-13T01:17:04.001Z,60.40
2019-05-13T01:19:34.179Z,60.50
2019-05-13T01:22:03.565Z,60.40
2019-05-13T01:24:33.905Z,60.50
2019-05-13T01:27:04.142Z,60.60
2019-05-13T01:29:34.467Z,60.60
2019-05-13T01:32:04.495Z,60.60
2019-05-13T01:34:34.503Z,60.80
2019-05-13T01:37:04.221Z,60.70
2019-05-13T01:39:34.947Z,60.60
2019-05-13T01:42:04.358Z,60.60
2019-05-13T01:44:33.845Z,60.60
2019-05-13T01:47:04.572Z,60.60
2019-05-13T01:49:34.088Z,60.60
2019-05-13T01:52:03.983Z,60.70
2019-05-13T01:54:33.976Z,60.70
2019-05-13T01:57:04.488Z,60.70
2019-05-13T01:59:34.720Z,60.80
2019-05-13T02:02:03.994Z,60.90
2019-05-13T02:04:33.594Z,60.80
2019-05-13T02:07:04.068Z,60.80
2019-05-13T02:09:34.095Z,60.80
2019-05-13T02:12:04.898Z,60.80
2019-05-13T02:14:34.831Z,60.90
2019-05-13T02:17:04.435Z,60.90
2019-05-13T02:19:33.803Z,61.10
2019-05-13T02:22:03.962Z,61.10
2019-05-13T02:24:34.084Z,61.10
2019-05-13T02:27:03.814Z,61.20
2019-05-13T02:29:34.392Z,61.10
2019-05-13T02:32:03.844Z,61.10
2019-05-13T02:34:32.965Z,61.30
2019-05-13T02:37:03.187Z,61.20
2019-05-13T02:39:33.072Z,61.30
2019-05-13T02:42:03.607Z,61.30
2019-05-13T02:44:33.465Z,61.30
2019-05-13T02:47:03.610Z,61.20
2019-05-13T02:49:33.332Z,61.30
2019-05-13T02:52:03.267Z,61.30
2019-05-13T02:54:34.301Z,61.10
2019-05-13T02:57:04.001Z,61.30
2019-05-13T02:59:33.757Z,61.20
2019-05-13T03:02:03.933Z,61.30
2019-05-13T03:04:33.670Z,61.40
2019-05-13T03:07:03.213Z,61.50
2019-05-13T03:09:32.796Z,61.40
2019-05-13T03:12:03.955Z,61.50
2019-05-13T03:14:33.832Z,61.50
2019-05-13T03:17:15.182Z,61.50
2019-05-13T03:19:44.295Z,61.50
2019-05-13T03:22:13.898Z,61.60
2019-05-13T03:24:43.189Z,61.50
2019-05-13T03:27:12.980Z,61.60
2019-05-13T03:29:43.350Z,61.70
2019-05-13T03:32:16.476Z,61.70
2019-05-13T03:34:45.583Z,61.70
2019-05-13T03:37:16.254Z,61.80
2019-05-13T03:39:47.731Z,61.90
2019-05-13T03:42:16.875Z,61.70
2019-05-13T03:44:47.595Z,61.80
2019-05-13T03:47:18.558Z,61.70
2019-05-13T03:49:49.300Z,61.70
2019-05-13T03:52:18.613Z,61.80
2019-05-13T03:54:48.127Z,61.80
2019-05-13T03:57:17.071Z,61.80
2019-05-13T03:59:46.799Z,61.80
2019-05-13T04:02:16.451Z,61.80
2019-05-13T04:04:45.397Z,61.70
2019-05-13T04:07:14.897Z,61.80
2019-05-13T04:09:44.383Z,61.80
2019-05-13T04:12:13.740Z,61.80
2019-05-13T04:14:42.694Z,61.90
2019-05-13T04:17:12.679Z,61.90
2019-05-13T04:19:42.542Z,61.70
2019-05-13T04:22:12.860Z,61.80
2019-05-13T04:24:42.844Z,61.80
2019-05-13T04:27:13.346Z,62.40
2019-05-13T04:29:43.367Z,62.30
2019-05-13T04:32:13.205Z,61.60
2019-05-13T04:34:42.705Z,61.60
2019-05-13T04:37:13.276Z,61.60
2019-05-13T04:39:51.138Z,61.60
2019-05-13T04:42:13.485Z,61.70
2019-05-13T04:44:43.025Z,61.80
2019-05-13T04:47:12.906Z,61.80
2019-05-13T04:49:43.007Z,61.80
2019-05-13T04:52:13.462Z,61.90
2019-05-13T04:54:43.595Z,62.10
2019-05-13T04:57:13.337Z,62.10
2019-05-13T04:59:44.515Z,62.20
2019-05-13T05:02:48.974Z,61.90
2019-05-13T05:05:57.765Z,62.00
2019-05-13T05:09:25.883Z,61.90
2019-05-13T05:12:16.946Z,61.90
2019-05-13T05:15:23.392Z,61.80
2019-05-13T05:18:32.641Z,61.80
2019-05-13T05:21:12.441Z,61.70
2019-05-13T05:24:22.859Z,61.50
2019-05-13T05:27:26.441Z,61.40
2019-05-13T05:30:32.219Z,61.90
2019-05-13T05:33:31.916Z,61.70
2019-05-13T05:36:38.682Z,61.60
2019-05-13T05:39:28.205Z,61.60
2019-05-13T05:41:58.272Z,62.30
2019-05-13T05:44:32.100Z,61.50
2019-05-13T05:47:02.710Z,61.50
2019-05-13T05:49:32.203Z,62.20
2019-05-13T05:52:03.160Z,61.40
2019-05-13T05:54:34.734Z,61.40
2019-05-13T05:57:05.075Z,62.00
2019-05-13T05:59:34.947Z,61.30
2019-05-13T06:02:05.494Z,61.20
2019-05-13T06:04:34.761Z,61.20
2019-05-13T06:07:03.846Z,61.20
2019-05-13T06:09:32.818Z,61.20
2019-05-13T06:12:02.350Z,61.80
2019-05-13T06:14:32.738Z,60.90
2019-05-13T06:17:02.911Z,60.90
2019-05-13T06:19:32.313Z,60.90
2019-05-13T06:22:02.759Z,60.90
2019-05-13T06:24:32.061Z,61.00
2019-05-13T06:27:01.633Z,61.00
2019-05-13T06:29:31.748Z,61.10
2019-05-13T06:32:15.143Z,61.00
2019-05-13T06:34:33.133Z,61.20
2019-05-13T06:37:02.621Z,61.30
2019-05-13T06:39:32.134Z,61.30
2019-05-13T06:42:02.646Z,61.40
2019-05-13T06:44:31.980Z,61.30
2019-05-13T06:47:02.484Z,61.40
2019-05-13T06:49:32.702Z,61.40
2019-05-13T06:52:02.129Z,61.40
2019-05-13T06:54:33.084Z,61.50
2019-05-13T06:57:05.206Z,61.30
2019-05-13T06:59:32.751Z,61.30
2019-05-13T07:02:02.361Z,61.30
2019-05-13T07:04:32.716Z,61.20
2019-05-13T07:07:12.370Z,61.20
2019-05-13T07:09:34.293Z,61.20
2019-05-13T07:12:03.603Z,61.20
2019-05-13T07:14:32.834Z,61.10
2019-05-13T07:17:02.349Z,61.20
2019-05-13T07:19:32.396Z,61.20
2019-05-13T07:22:02.683Z,61.10
2019-05-13T07:24:32.582Z,61.10
2019-05-13T07:27:02.179Z,61.10
2019-05-13T07:29:32.773Z,61.10
2019-05-13T07:32:02.242Z,59.90
2019-05-13T07:34:33.480Z,60.30
2019-05-13T07:37:02.338Z,59.80
2019-05-13T07:39:32.995Z,59.90
2019-05-13T07:42:05.476Z,59.90
2019-05-13T07:44:32.731Z,59.90
2019-05-13T07:47:03.574Z,60.00
2019-05-13T07:49:33.724Z,60.00
2019-05-13T07:52:02.958Z,60.00
2019-05-13T07:54:32.979Z,59.80
2019-05-13T07:57:02.410Z,59.90
2019-05-13T07:59:32.225Z,59.90
2019-05-13T08:02:02.311Z,59.80
2019-05-13T08:04:33.401Z,59.90
2019-05-13T08:07:02.580Z,59.90
2019-05-13T08:09:32.223Z,59.90
2019-05-13T08:12:09.843Z,59.80
2019-05-13T08:14:33.326Z,59.80
2019-05-13T08:17:03.011Z,59.80
2019-05-13T08:19:32.801Z,59.70
2019-05-13T08:22:02.531Z,59.70
2019-05-13T08:24:31.795Z,59.70
2019-05-13T08:27:02.153Z,59.60
2019-05-13T08:29:32.721Z,59.60
2019-05-13T08:32:03.020Z,59.50
2019-05-13T08:34:33.066Z,59.50
2019-05-13T08:37:03.174Z,59.30
2019-05-13T08:39:38.188Z,59.50
2019-05-13T08:42:15.031Z,59.50
2019-05-13T08:44:34.487Z,59.50
2019-05-13T08:47:03.706Z,59.50
2019-05-13T08:49:33.565Z,59.30
2019-05-13T08:52:02.356Z,59.40
2019-05-13T08:54:32.957Z,59.30
2019-05-13T08:57:03.224Z,59.10
2019-05-13T08:59:32.846Z,59.00
2019-05-13T09:02:03.138Z,59.00
2019-05-13T09:04:32.590Z,58.90
2019-05-13T09:07:02.515Z,58.80
2019-05-13T09:09:32.049Z,58.60
2019-05-13T09:12:02.463Z,58.70
2019-05-13T09:14:32.749Z,58.70
2019-05-13T09:17:02.244Z,58.70
2019-05-13T09:19:32.550Z,58.40
2019-05-13T09:22:03.031Z,58.30
2019-05-13T09:24:37.129Z,58.10
2019-05-13T09:27:04.070Z,58.10
2019-05-13T09:29:32.894Z,57.90
2019-05-13T09:32:03.684Z,57.90
2019-05-13T09:34:33.089Z,57.80
2019-05-13T09:37:02.954Z,57.80
2019-05-13T09:39:32.602Z,57.60
2019-05-13T09:42:02.876Z,57.50
2019-05-13T09:44:33.074Z,57.30
2019-05-13T09:47:03.002Z,57.20
2019-05-13T09:49:33.291Z,57.00
2019-05-13T09:52:02.517Z,57.00
2019-05-13T09:54:32.597Z,56.80
2019-05-13T09:57:02.165Z,56.70
2019-05-13T09:59:32.063Z,56.60
2019-05-13T10:02:03.159Z,56.50
2019-05-13T10:04:32.163Z,56.40
2019-05-13T10:07:02.401Z,56.10
2019-05-13T10:09:32.591Z,56.20
2019-05-13T10:12:03.329Z,56.20
2019-05-13T10:14:33.333Z,56.20
2019-05-13T10:17:06.366Z,55.90
2019-05-13T10:19:34.504Z,55.90
2019-05-13T10:22:04.164Z,55.90
2019-05-13T10:24:33.405Z,55.90
2019-05-13T10:27:02.866Z,56.00
2019-05-13T10:29:36.619Z,55.90
2019-05-13T10:32:06.155Z,56.10
2019-05-13T10:34:35.290Z,55.90
2019-05-13T10:37:04.587Z,56.00
2019-05-13T10:39:34.657Z,56.00
2019-05-13T10:42:04.007Z,55.80
2019-05-13T10:44:33.620Z,55.70
2019-05-13T10:47:02.729Z,55.60
2019-05-13T10:49:33.041Z,55.40
2019-05-13T10:52:03.276Z,55.50
2019-05-13T10:54:32.864Z,55.30
2019-05-13T10:57:03.845Z,55.30
2019-05-13T10:59:33.684Z,55.00
2019-05-13T11:02:02.899Z,54.90
2019-05-13T11:04:32.672Z,54.60
2019-05-13T11:07:03.334Z,54.30
2019-05-13T11:09:32.783Z,54.00
2019-05-13T11:12:03.997Z,54.20
2019-05-13T11:14:33.258Z,54.10
2019-05-13T11:17:02.198Z,54.00
2019-05-13T11:19:36.630Z,53.80
2019-05-13T11:24:32.793Z,53.90
2019-05-13T11:27:08.017Z,53.70
2019-05-13T11:29:36.941Z,53.70
2019-05-13T11:32:06.588Z,53.70
2019-05-13T11:34:35.743Z,53.70
2019-05-13T11:37:04.718Z,53.60
2019-05-13T11:39:34.201Z,53.50
2019-05-13T11:42:03.307Z,53.60
2019-05-13T11:44:32.608Z,53.50
2019-05-13T11:47:02.336Z,53.50
2019-05-13T11:49:31.923Z,53.40
2019-05-13T11:52:02.642Z,53.20
2019-05-13T11:54:31.877Z,53.10
2019-05-13T11:57:05.720Z,53.10
2019-05-13T11:59:32.942Z,53.10
2019-05-13T12:02:04.612Z,53.00
2019-05-13T12:04:34.858Z,53.00
2019-05-13T12:07:04.469Z,52.90
2019-05-13T12:09:33.869Z,52.90
2019-05-13T12:12:03.479Z,52.80
2019-05-13T12:14:47.687Z,53.30
2019-05-13T12:17:03.743Z,52.90
2019-05-13T12:19:32.521Z,52.90
2019-05-13T12:22:02.659Z,52.70
2019-05-13T12:24:32.519Z,52.70
2019-05-13T12:27:03.653Z,52.70
2019-05-13T12:29:32.505Z,52.90
2019-05-13T12:32:03.229Z,52.60
2019-05-13T12:34:39.719Z,52.60
2019-05-13T12:37:04.541Z,52.50
2019-05-13T12:39:34.274Z,52.50
2019-05-13T12:42:03.741Z,52.70
2019-05-13T12:44:33.051Z,52.70
2019-05-13T12:47:03.343Z,52.80
2019-05-13T12:49:36.408Z,52.70
2019-05-13T12:52:04.770Z,52.80
2019-05-13T12:54:33.704Z,52.80
2019-05-13T12:57:03.692Z,52.70
2019-05-13T12:59:32.833Z,52.70
2019-05-13T13:02:03.207Z,52.70
2019-05-13T13:04:33.811Z,52.70
2019-05-13T13:07:04.001Z,52.70
2019-05-13T13:09:33.748Z,52.80
2019-05-13T13:12:02.845Z,52.70
2019-05-13T13:14:38.426Z,52.80
2019-05-13T13:17:04.099Z,52.90
2019-05-13T13:19:34.158Z,52.90
2019-05-13T13:22:07.634Z,52.70
2019-05-13T13:24:34.181Z,52.70
2019-05-13T13:27:03.378Z,52.80
2019-05-13T13:29:33.997Z,52.60
2019-05-13T13:32:03.192Z,52.50
2019-05-13T13:34:33.669Z,52.50
2019-05-13T13:37:05.020Z,52.30
2019-05-13T13:39:33.815Z,52.20
2019-05-13T13:42:05.424Z,52.00
2019-05-13T13:44:35.061Z,52.10
2019-05-13T13:47:04.401Z,51.90
2019-05-13T13:49:34.858Z,51.80
2019-05-13T13:52:04.306Z,51.80
2019-05-13T13:54:33.941Z,51.70
2019-05-13T13:57:03.035Z,51.70
2019-05-13T13:59:36.021Z,51.70
2019-05-13T14:02:05.519Z,51.50
2019-05-13T14:04:34.065Z,51.40
2019-05-13T14:07:04.309Z,53.80
2019-05-13T14:07:27.843Z,51.40
2019-05-13T14:09:33.960Z,51.20
2019-05-13T14:12:03.185Z,51.20
2019-05-13T14:14:32.655Z,51.10
2019-05-13T14:17:02.404Z,51.00
2019-05-13T14:19:32.335Z,51.60
2019-05-13T14:22:02.092Z,51.00
2019-05-13T14:24:33.081Z,50.90
2019-05-13T14:27:03.097Z,50.60
2019-05-13T14:29:40.531Z,50.40
2019-05-13T14:32:03.119Z,50.50
2019-05-13T14:34:32.239Z,50.40
2019-05-13T14:37:01.517Z,50.40
2019-05-13T14:39:31.919Z,50.40
2019-05-13T14:42:02.254Z,50.20
2019-05-13T14:44:32.457Z,50.00
2019-05-13T14:47:01.752Z,50.10
2019-05-13T14:49:31.663Z,50.10
2019-05-13T14:52:01.424Z,50.20
2019-05-13T14:54:31.332Z,50.10
2019-05-13T14:57:02.394Z,50.00
2019-05-13T14:59:31.842Z,49.80
2019-05-13T15:02:01.426Z,49.90
2019-05-13T15:04:52.307Z,49.90
2019-05-13T15:07:21.618Z,49.90
2019-05-13T15:09:51.531Z,49.90
2019-05-13T15:12:21.617Z,49.80
2019-05-13T15:14:52.402Z,49.70
2019-05-13T15:17:21.520Z,49.70
2019-05-13T15:19:52.444Z,49.60
2019-05-13T15:22:22.758Z,49.80
2019-05-13T15:24:52.520Z,49.60
2019-05-13T15:27:22.470Z,49.70
2019-05-13T15:29:51.806Z,49.70
2019-05-13T15:32:21.755Z,49.70
2019-05-13T15:34:51.940Z,49.80
2019-05-13T15:37:21.547Z,49.70
2019-05-13T15:39:51.844Z,49.90
2019-05-13T15:42:21.785Z,49.90
2019-05-13T15:44:52.952Z,49.90
2019-05-13T15:47:24.088Z,49.80
2019-05-13T15:49:52.793Z,50.30
2019-05-13T15:52:22.583Z,49.90
2019-05-13T15:54:52.330Z,49.80
2019-05-13T15:57:21.658Z,50.00
2019-05-13T15:59:51.779Z,50.00
2019-05-13T16:02:22.629Z,50.10
2019-05-13T16:05:00.699Z,50.30
2019-05-13T16:07:23.301Z,50.30
2019-05-13T16:09:52.806Z,50.40
2019-05-13T16:12:21.964Z,50.60
2019-05-13T16:14:51.089Z,50.60
2019-05-13T16:17:30.600Z,50.60
2019-05-13T16:19:53.471Z,50.90
2019-05-13T16:22:23.064Z,50.80
2019-05-13T16:24:52.424Z,51.00
2019-05-13T16:27:22.382Z,51.00
2019-05-13T16:29:51.772Z,51.20
2019-05-13T16:32:22.706Z,51.10
2019-05-13T16:34:52.076Z,51.30
2019-05-13T16:37:22.000Z,52.00
2019-05-13T16:39:52.175Z,51.50
2019-05-13T16:42:22.563Z,51.50
2019-05-13T16:44:51.741Z,51.50
2019-05-13T16:47:21.305Z,51.50
2019-05-13T16:49:50.879Z,51.50
2019-05-13T16:52:21.894Z,51.50
2019-05-13T16:54:53.245Z,51.70
2019-05-13T16:57:21.358Z,51.80
2019-05-13T16:59:51.720Z,52.20
2019-05-13T17:02:21.622Z,51.90
2019-05-13T17:04:52.082Z,52.00
2019-05-13T17:07:21.341Z,52.00
2019-05-13T17:09:52.102Z,52.10
2019-05-13T17:12:21.768Z,52.20
2019-05-13T17:14:52.250Z,52.20
2019-05-13T17:17:21.867Z,52.20
2019-05-13T17:19:53.803Z,52.20
2019-05-13T17:22:21.585Z,52.30
2019-05-13T17:24:51.886Z,52.40
2019-05-13T17:27:21.480Z,52.40
2019-05-13T17:29:51.589Z,52.50
2019-05-13T17:32:22.237Z,52.40
2019-05-13T17:34:51.708Z,52.50
2019-05-13T17:37:22.118Z,52.50
2019-05-13T17:39:51.228Z,53.00
2019-05-13T17:42:21.648Z,52.60
2019-05-13T17:44:51.606Z,52.70
2019-05-13T17:47:21.842Z,52.60
2019-05-13T17:49:52.090Z,52.70
2019-05-13T17:52:22.070Z,52.70
2019-05-13T17:54:51.825Z,52.80
2019-05-13T17:57:21.598Z,52.80
2019-05-13T17:59:52.102Z,52.80
2019-05-13T18:02:21.256Z,52.90
2019-05-13T18:04:52.159Z,52.90
2019-05-13T18:07:21.576Z,52.90
2019-05-13T18:09:51.983Z,53.00
2019-05-13T18:12:22.318Z,52.90
2019-05-13T18:14:51.822Z,53.10
2019-05-13T18:17:21.577Z,53.10
2019-05-13T18:19:51.526Z,53.10
2019-05-13T18:22:20.449Z,53.20
2019-05-13T18:24:51.900Z,53.30
2019-05-13T18:27:22.149Z,53.40
2019-05-13T18:29:52.111Z,53.40
2019-05-13T18:32:21.547Z,53.40
2019-05-13T18:34:51.234Z,53.40
2019-05-13T18:37:22.158Z,53.50
2019-05-13T18:39:52.019Z,53.50
2019-05-13T18:42:22.320Z,53.60
2019-05-13T18:44:52.190Z,53.70
2019-05-13T18:47:22.101Z,53.80
2019-05-13T18:49:51.141Z,53.90
2019-05-13T18:52:22.301Z,53.90
2019-05-13T18:54:51.385Z,53.80
2019-05-13T18:57:21.282Z,53.80
2019-05-13T18:59:52.062Z,53.70
2019-05-13T19:02:21.516Z,53.60
2019-05-13T19:04:52.324Z,53.60
2019-05-13T19:07:23.342Z,53.50
2019-05-13T19:09:52.414Z,53.60
2019-05-13T19:12:22.047Z,53.60
2019-05-13T19:14:51.660Z,54.00
2019-05-13T19:17:22.343Z,53.90
2019-05-13T19:19:51.777Z,53.90
2019-05-13T19:22:21.448Z,53.80
2019-05-13T19:24:51.823Z,53.80
2019-05-13T19:27:21.612Z,54.10
2019-05-13T19:29:52.370Z,54.20
2019-05-13T19:32:21.844Z,54.20
2019-05-13T19:34:51.757Z,54.20
2019-05-13T19:37:22.399Z,54.30
2019-05-13T19:39:51.585Z,54.30
2019-05-13T19:42:22.298Z,54.40
2019-05-13T19:44:52.401Z,54.40
2019-05-13T19:47:21.355Z,54.50
2019-05-13T19:49:52.399Z,54.50
2019-05-13T19:52:22.064Z,54.60
2019-05-13T19:54:51.496Z,54.60
2019-05-13T19:57:21.360Z,54.70
2019-05-13T19:59:50.288Z,54.80
2019-05-13T20:02:22.170Z,54.70
2019-05-13T20:04:51.876Z,54.90
2019-05-13T20:07:22.415Z,54.80
2019-05-13T20:09:52.454Z,54.80
2019-05-13T20:12:21.323Z,54.90
2019-05-13T20:14:51.751Z,55.00
2019-05-13T20:17:20.738Z,55.80
2019-05-13T20:19:51.453Z,55.80
2019-05-13T20:22:20.954Z,56.00
2019-05-13T20:24:51.427Z,56.00
2019-05-13T20:27:21.250Z,56.10
2019-05-13T20:29:51.180Z,56.00
2019-05-13T20:32:22.072Z,56.10
2019-05-13T20:34:51.425Z,56.10
2019-05-13T20:37:21.499Z,56.20
2019-05-13T20:39:51.532Z,56.30
2019-05-13T20:42:23.400Z,56.30
2019-05-13T20:44:52.587Z,56.20
2019-05-13T20:47:21.740Z,56.30
2019-05-13T20:49:59.237Z,56.30
2019-05-13T20:52:22.370Z,56.30
2019-05-13T20:54:51.736Z,56.40
2019-05-13T20:57:22.207Z,56.50
2019-05-13T20:59:51.726Z,56.50
2019-05-13T21:02:22.123Z,56.50
2019-05-13T21:04:52.201Z,56.60
2019-05-13T21:07:21.724Z,56.60
2019-05-13T21:09:51.310Z,56.70
2019-05-13T21:12:22.077Z,56.70
2019-05-13T21:14:51.330Z,56.70
2019-05-13T21:17:21.395Z,56.70
2019-05-13T21:19:52.696Z,56.80
2019-05-13T21:22:21.427Z,56.80
2019-05-13T21:24:51.513Z,56.80
2019-05-13T21:27:20.804Z,56.80
2019-05-13T21:29:51.826Z,56.90
2019-05-13T21:32:21.340Z,56.90
2019-05-13T21:34:51.643Z,57.10
2019-05-13T21:37:22.116Z,56.80
2019-05-13T21:39:51.771Z,56.80
2019-05-13T21:42:21.625Z,56.70
2019-05-13T21:44:51.306Z,56.90
2019-05-13T21:47:22.047Z,57.00
2019-05-13T21:49:51.625Z,57.00
2019-05-13T21:52:21.518Z,57.00
2019-05-13T21:54:51.707Z,57.20
2019-05-13T21:57:21.571Z,57.10
2019-05-13T21:59:51.599Z,57.10
2019-05-13T22:02:23.357Z,57.20
2019-05-13T22:04:52.287Z,57.20
2019-05-13T22:07:22.239Z,57.30
2019-05-13T22:09:51.978Z,57.20
2019-05-13T22:12:21.792Z,57.30
2019-05-13T22:14:51.717Z,57.30
2019-05-13T22:17:21.615Z,57.30
2019-05-13T22:19:51.278Z,57.20
2019-05-13T22:22:22.064Z,57.30
2019-05-13T22:24:51.399Z,57.30
2019-05-13T22:27:21.841Z,57.40
2019-05-13T22:29:51.668Z,57.50
2019-05-13T22:32:22.004Z,57.50
2019-05-13T22:34:51.317Z,57.50
2019-05-13T22:37:23.027Z,57.60
2019-05-13T22:39:51.758Z,57.50
2019-05-13T22:42:21.566Z,57.60
2019-05-13T22:44:52.210Z,57.70
2019-05-13T22:47:22.158Z,57.80
2019-05-13T22:49:51.732Z,57.90
2019-05-13T22:52:21.822Z,58.00
2019-05-13T22:54:51.908Z,58.10
2019-05-13T22:57:21.904Z,58.20
2019-05-13T22:59:52.035Z,58.10
2019-05-13T23:02:21.943Z,58.10
2019-05-13T23:04:51.227Z,58.60
2019-05-13T23:07:22.296Z,58.10
2019-05-13T23:09:51.995Z,58.00
2019-05-13T23:12:21.325Z,58.00
2019-05-13T23:14:52.068Z,57.90
2019-05-13T23:17:21.711Z,57.90
2019-05-13T23:19:52.186Z,57.90
2019-05-13T23:22:22.302Z,57.90
2019-05-13T23:24:51.362Z,57.80
2019-05-13T23:27:22.037Z,57.80
2019-05-13T23:29:51.764Z,57.90
2019-05-13T23:32:21.303Z,57.80
2019-05-13T23:34:51.208Z,57.90
2019-05-13T23:37:21.854Z,57.90
2019-05-13T23:39:52.063Z,58.10
2019-05-13T23:42:21.236Z,58.10
2019-05-13T23:44:51.798Z,58.10
2019-05-13T23:47:21.845Z,58.10
2019-05-13T23:49:51.341Z,58.20
2019-05-13T23:52:21.970Z,58.20
2019-05-13T23:54:51.860Z,58.30
2019-05-13T23:57:22.165Z,58.40
2019-05-13T23:59:51.829Z,58.40
